Terminal Aerodrome Forecast
Issued by NWS Flagstaff, AZ

Home | Current Version | Previous Version | Text Only | Print | Product List | Glossary On
Versions: 1 2 3 4 5 6 7 8 9 10 11 12
000
FTUS45 KFGZ 202300
TAFINW
TAF
KINW 202320Z 2100/2124 VRB06KT P6SM SCT200
     FM211400 VRB05KT P6SM BKN150
     FM212100 VRB05KT P6SM OVC080=

USA.gov is the U.S. government's official web portal to all federal, state and local government web resources and services.